createdAt,value
2022-11-09T00:04:34.033Z,29.33
2022-11-09T00:09:36.396Z,30.00
2022-11-09T00:14:39.348Z,29.13
2022-11-09T00:19:41.648Z,29.80
2022-11-09T00:24:44.154Z,27.70
2022-11-09T00:29:46.462Z,29.00
2022-11-09T00:34:48.952Z,27.88
2022-11-09T00:39:51.196Z,30.38
2022-11-09T00:44:53.351Z,28.13
2022-11-09T00:49:56.001Z,29.27
2022-11-09T00:54:58.181Z,26.80
2022-11-09T01:00:00.369Z,27.73
2022-11-09T01:05:02.547Z,26.52
2022-11-09T01:10:06.417Z,27.23
2022-11-09T01:15:09.298Z,28.75
2022-11-09T01:20:12.552Z,32.15
2022-11-09T01:25:15.821Z,31.80
2022-11-09T01:30:18.128Z,29.20
2022-11-09T01:35:20.701Z,28.60
2022-11-09T01:40:22.895Z,28.17
2022-11-09T01:45:27.338Z,27.63
2022-11-09T01:50:56.462Z,28.83
2022-11-09T01:56:03.394Z,28.13
2022-11-09T02:01:11.586Z,28.83
2022-11-09T02:06:16.958Z,26.85
2022-11-09T02:11:22.913Z,27.45
2022-11-09T02:16:26.945Z,28.67
2022-11-09T02:21:32.071Z,28.42
2022-11-09T02:26:40.055Z,28.60
2022-11-09T02:31:47.947Z,28.65
2022-11-09T02:36:50.363Z,27.30
2022-11-09T02:42:02.938Z,29.27
2022-11-09T02:47:06.159Z,28.63
2022-11-09T02:52:08.528Z,27.83
2022-11-09T02:57:10.866Z,28.50
2022-11-09T03:02:13.077Z,28.08
2022-11-09T03:07:15.389Z,28.42
2022-11-09T03:12:29.720Z,27.23
2022-11-09T03:17:32.707Z,26.55
2022-11-09T03:22:35.020Z,29.98
2022-11-09T03:27:37.297Z,29.45
2022-11-09T03:32:39.503Z,29.02
2022-11-09T03:37:41.845Z,30.52
2022-11-09T03:42:46.193Z,28.90
2022-11-09T03:47:48.668Z,28.67
2022-11-09T03:52:50.829Z,30.08
2022-11-09T03:57:53.084Z,30.48
2022-11-09T04:02:55.292Z,30.25
2022-11-09T04:07:59.581Z,29.17
2022-11-09T04:13:01.941Z,28.15
2022-11-09T04:18:04.280Z,29.30
2022-11-09T04:23:07.974Z,27.92
2022-11-09T04:28:13.272Z,28.20
2022-11-09T04:33:15.652Z,29.13
2022-11-09T04:38:17.973Z,27.15
2022-11-09T04:43:20.372Z,29.38
2022-11-09T04:48:22.891Z,30.58
2022-11-09T04:53:25.494Z,30.27
2022-11-09T04:58:28.178Z,29.40
2022-11-09T05:03:30.661Z,29.08
2022-11-09T05:08:32.883Z,29.20
2022-11-09T05:13:35.076Z,28.98
2022-11-09T05:18:37.452Z,28.15
2022-11-09T05:23:59.080Z,30.33
2022-11-09T05:29:04.108Z,29.65
2022-11-09T05:34:16.261Z,29.77
2022-11-09T05:39:18.484Z,28.50
2022-11-09T05:44:20.874Z,24.17
2022-11-09T05:49:23.207Z,25.23
2022-11-09T05:54:25.529Z,25.95
2022-11-09T05:59:27.859Z,22.92
2022-11-09T06:04:30.032Z,24.10
2022-11-09T06:09:32.215Z,23.45
2022-11-09T06:14:34.674Z,21.83
2022-11-09T06:19:36.993Z,23.02
2022-11-09T06:24:39.791Z,24.40
2022-11-09T06:29:42.001Z,24.80
2022-11-09T06:34:44.771Z,24.92
2022-11-09T06:39:47.838Z,24.67
2022-11-09T06:44:50.059Z,25.10
2022-11-09T06:49:52.310Z,26.55
2022-11-09T06:54:54.483Z,25.88
2022-11-09T06:59:56.735Z,27.65
2022-11-09T07:04:59.104Z,28.50
2022-11-09T07:10:01.480Z,25.05
2022-11-09T07:15:05.023Z,26.65
2022-11-09T07:20:11.163Z,26.65
2022-11-09T07:25:14.043Z,30.02
2022-11-09T07:30:16.300Z,27.67
2022-11-09T07:35:18.941Z,28.45
2022-11-09T07:40:21.394Z,33.28
2022-11-09T07:45:23.580Z,30.05
2022-11-09T07:50:27.076Z,29.67
2022-11-09T07:55:30.664Z,30.05
2022-11-09T08:00:34.862Z,29.23
2022-11-09T08:05:37.770Z,29.77
2022-11-09T08:10:40.639Z,29.25
2022-11-09T08:15:43.406Z,26.88
2022-11-09T08:20:46.135Z,25.23
2022-11-09T08:25:50.259Z,23.92
2022-11-09T08:30:57.905Z,22.00
2022-11-09T08:36:00.149Z,23.58
2022-11-09T08:41:02.378Z,25.75
2022-11-09T08:46:05.195Z,22.45
2022-11-09T08:51:07.623Z,23.17
2022-11-09T08:56:11.347Z,24.77
2022-11-09T09:01:17.110Z,25.17
2022-11-09T09:06:19.980Z,25.08
2022-11-09T09:11:22.293Z,23.95
2022-11-09T09:16:24.642Z,21.45
2022-11-09T09:21:26.995Z,18.20
2022-11-09T09:26:29.219Z,18.23
2022-11-09T09:31:31.715Z,18.48
2022-11-09T09:36:36.264Z,19.42
2022-11-09T09:41:53.922Z,19.00
2022-11-09T09:47:04.809Z,17.45
2022-11-09T09:52:21.217Z,17.23
2022-11-09T09:57:25.235Z,17.20
2022-11-09T10:02:28.773Z,16.90
2022-11-09T10:08:01.548Z,17.88
2022-11-09T10:19:23.369Z,16.90
2022-11-09T10:30:19.785Z,15.13
2022-11-09T10:35:37.852Z,14.30
2022-11-09T10:41:32.428Z,14.98
2022-11-09T10:47:08.470Z,16.48
2022-11-09T10:52:47.271Z,16.17
2022-11-09T10:58:26.256Z,14.57
2022-11-09T11:03:34.372Z,15.88
2022-11-09T11:08:42.365Z,17.08
2022-11-09T11:13:45.475Z,15.20
2022-11-09T11:18:48.453Z,17.70
2022-11-09T11:24:17.004Z,16.77
2022-11-09T11:29:49.289Z,14.88
2022-11-09T11:35:00.165Z,15.02
2022-11-09T11:40:19.825Z,15.07
2022-11-09T11:45:40.711Z,13.57
2022-11-09T11:50:57.869Z,14.93
2022-11-09T11:56:00.011Z,15.35
2022-11-09T12:01:26.632Z,14.57
2022-11-09T12:06:49.368Z,14.88
2022-11-09T12:12:06.383Z,16.33
2022-11-09T12:17:40.935Z,15.10
2022-11-09T12:23:31.493Z,13.93
2022-11-09T12:29:09.312Z,14.95
2022-11-09T12:40:24.541Z,14.95
2022-11-09T12:45:39.089Z,15.48
2022-11-09T12:50:42.349Z,16.05
2022-11-09T12:55:50.554Z,14.90
2022-11-09T13:00:55.624Z,15.10
2022-11-09T13:06:21.783Z,15.35
2022-11-09T13:11:47.082Z,14.70
2022-11-09T13:17:21.233Z,13.63
2022-11-09T13:22:23.527Z,12.15
2022-11-09T13:27:46.887Z,13.65
2022-11-09T13:33:52.133Z,13.25
2022-11-09T13:39:43.142Z,15.10
2022-11-09T13:44:47.388Z,15.07
2022-11-09T13:49:51.605Z,15.25
2022-11-09T13:54:55.009Z,15.45
2022-11-09T14:00:00.337Z,15.35
2022-11-09T14:05:02.650Z,16.00
2022-11-09T14:10:20.065Z,15.68
2022-11-09T14:15:31.585Z,17.90
2022-11-09T14:21:08.927Z,16.95
2022-11-09T14:26:20.226Z,17.35
2022-11-09T14:31:24.780Z,17.60
2022-11-09T14:36:28.321Z,16.63
2022-11-09T14:41:31.109Z,17.95
2022-11-09T14:46:33.559Z,18.60
2022-11-09T14:51:40.899Z,19.13
2022-11-09T14:56:44.182Z,20.23
2022-11-09T15:02:01.768Z,20.38
2022-11-09T15:07:05.571Z,20.58
2022-11-09T15:12:18.608Z,20.70
2022-11-09T15:17:33.270Z,18.83
2022-11-09T15:22:52.498Z,21.35
2022-11-09T15:28:13.600Z,21.63
2022-11-09T15:33:18.566Z,20.80
2022-11-09T15:38:56.035Z,20.15
2022-11-09T15:43:59.303Z,22.23
2022-11-09T15:49:23.799Z,23.88
2022-11-09T15:54:26.121Z,23.15
2022-11-09T15:59:28.394Z,22.95
2022-11-09T16:04:31.450Z,22.38
2022-11-09T16:09:34.442Z,23.48
2022-11-09T16:14:36.693Z,23.05
2022-11-09T16:19:40.032Z,23.58
2022-11-09T16:24:42.481Z,24.95
2022-11-09T16:29:44.915Z,24.83
2022-11-09T16:34:57.745Z,24.00
2022-11-09T16:40:13.832Z,25.60
2022-11-09T16:45:17.764Z,30.00
2022-11-09T16:50:20.256Z,30.67
2022-11-09T16:55:22.658Z,31.20
2022-11-09T17:00:37.490Z,31.10
2022-11-09T17:05:47.455Z,28.88
2022-11-09T17:10:49.751Z,30.65
2022-11-09T17:15:55.779Z,29.08
2022-11-09T17:20:58.085Z,29.05
2022-11-09T17:26:02.571Z,28.42
2022-11-09T17:31:24.090Z,32.40
2022-11-09T17:36:49.295Z,29.92
2022-11-09T17:41:48.868Z,31.63
2022-11-09T17:46:51.094Z,33.80
2022-11-09T17:51:53.294Z,34.58
2022-11-09T17:56:55.913Z,35.08
2022-11-09T18:01:59.394Z,34.90
2022-11-09T18:07:01.644Z,32.58
2022-11-09T18:12:04.004Z,33.03
2022-11-09T18:17:06.223Z,32.92
2022-11-09T18:22:12.502Z,33.92
2022-11-09T18:27:15.126Z,35.78
2022-11-09T18:32:17.497Z,37.10
2022-11-09T18:37:19.874Z,35.28
2022-11-09T18:42:22.101Z,37.05
2022-11-09T18:47:36.989Z,37.83
2022-11-09T18:52:39.281Z,37.28
2022-11-09T18:57:41.698Z,39.47
2022-11-09T19:02:44.112Z,40.95
2022-11-09T19:07:46.467Z,39.88
2022-11-09T19:12:48.641Z,40.83
2022-11-09T19:17:51.015Z,42.28
2022-11-09T19:22:53.177Z,42.55
2022-11-09T19:27:55.513Z,43.97
2022-11-09T19:32:57.806Z,46.70
2022-11-09T19:38:05.112Z,48.08
2022-11-09T19:43:08.527Z,43.47
2022-11-09T19:48:10.699Z,42.00
2022-11-09T19:53:13.019Z,43.38
2022-11-09T19:58:15.297Z,45.47
2022-11-09T20:03:17.631Z,43.90
2022-11-09T20:08:20.200Z,45.80
2022-11-09T20:13:23.285Z,46.65
2022-11-09T20:18:25.867Z,42.83
2022-11-09T20:23:28.248Z,40.05
2022-11-09T20:28:30.445Z,43.33
2022-11-09T20:33:32.766Z,55.67
2022-11-09T20:38:35.093Z,56.63
2022-11-09T20:43:37.997Z,50.58
2022-11-09T20:48:54.207Z,42.22
2022-11-09T20:54:02.461Z,39.47
2022-11-09T20:59:09.296Z,38.45
2022-11-09T21:04:11.548Z,36.33
2022-11-09T21:09:14.424Z,29.92
2022-11-09T21:14:16.957Z,30.25
2022-11-09T21:19:20.409Z,33.97
2022-11-09T21:24:41.275Z,34.13
2022-11-09T21:29:52.881Z,33.40
2022-11-09T21:34:56.335Z,33.03
2022-11-09T21:39:59.062Z,32.55
2022-11-09T21:45:01.823Z,34.30
2022-11-09T21:50:11.153Z,35.50
2022-11-09T21:55:15.177Z,32.22
2022-11-09T22:00:18.624Z,33.20
2022-11-09T22:05:23.179Z,32.67
2022-11-09T22:10:26.175Z,32.25
2022-11-09T22:15:49.326Z,36.35
2022-11-09T22:20:58.321Z,40.95
2022-11-09T22:26:03.640Z,37.60
2022-11-09T22:31:09.351Z,37.17
2022-11-09T22:36:13.583Z,36.72
2022-11-09T22:41:16.858Z,33.50
2022-11-09T22:46:19.795Z,34.72
2022-11-09T22:51:22.833Z,33.92
2022-11-09T22:56:26.263Z,36.65
2022-11-09T23:01:30.413Z,34.25
2022-11-09T23:06:34.467Z,31.25
2022-11-09T23:11:37.125Z,31.15
2022-11-09T23:16:39.941Z,29.67
2022-11-09T23:21:42.518Z,31.35
2022-11-09T23:26:46.343Z,30.35
2022-11-09T23:31:49.256Z,29.48
2022-11-09T23:36:52.237Z,31.17
2022-11-09T23:41:54.798Z,28.92
2022-11-09T23:46:58.217Z,28.85
2022-11-09T23:52:00.743Z,30.88
2022-11-09T23:57:05.121Z,31.73
